sensor_id;sensor_type;location;lat;lon;timestamp;P1;durP1;ratioP1;P2;durP2;ratioP2
17858;SDS011;35426;30.698;104.050;2023-02-28T00:01:05;111.23;;;55.57;;
17858;SDS011;35426;30.698;104.050;2023-02-28T00:03:41;111.87;;;56.23;;
17858;SDS011;35426;30.698;104.050;2023-02-28T00:06:20;123.50;;;56.33;;
17858;SDS011;35426;30.698;104.050;2023-02-28T00:08:57;114.77;;;55.50;;
17858;SDS011;35426;30.698;104.050;2023-02-28T00:11:36;113.03;;;55.50;;
17858;SDS011;35426;30.698;104.050;2023-02-28T00:14:15;112.67;;;55.63;;
17858;SDS011;35426;30.698;104.050;2023-02-28T00:16:59;118.67;;;57.00;;
17858;SDS011;35426;30.698;104.050;2023-02-28T00:19:38;115.07;;;55.27;;
17858;SDS011;35426;30.698;104.050;2023-02-28T00:22:17;117.07;;;56.13;;
17858;SDS011;35426;30.698;104.050;2023-02-28T00:24:54;121.00;;;55.33;;
17858;SDS011;35426;30.698;104.050;2023-02-28T00:27:33;114.57;;;55.50;;
17858;SDS011;35426;30.698;104.050;2023-02-28T00:30:10;105.73;;;55.50;;
17858;SDS011;35426;30.698;104.050;2023-02-28T00:32:48;110.23;;;54.23;;
17858;SDS011;35426;30.698;104.050;2023-02-28T00:35:24;111.03;;;55.10;;
17858;SDS011;35426;30.698;104.050;2023-02-28T00:38:02;112.27;;;55.10;;
17858;SDS011;35426;30.698;104.050;2023-02-28T00:40:40;109.90;;;54.47;;
17858;SDS011;35426;30.698;104.050;2023-02-28T00:43:21;123.93;;;57.07;;
17858;SDS011;35426;30.698;104.050;2023-02-28T00:46:02;113.87;;;56.43;;
17858;SDS011;35426;30.698;104.050;2023-02-28T00:48:41;111.17;;;56.37;;
17858;SDS011;35426;30.698;104.050;2023-02-28T00:51:19;111.37;;;57.17;;
17858;SDS011;35426;30.698;104.050;2023-02-28T00:53:58;106.97;;;56.80;;
17858;SDS011;35426;30.698;104.050;2023-02-28T00:56:33;114.33;;;57.40;;
17858;SDS011;35426;30.698;104.050;2023-02-28T00:59:12;117.30;;;56.63;;
17858;SDS011;35426;30.698;104.050;2023-02-28T01:01:51;113.57;;;57.63;;
17858;SDS011;35426;30.698;104.050;2023-02-28T01:04:27;111.37;;;56.40;;
17858;SDS011;35426;30.698;104.050;2023-02-28T01:07:04;115.40;;;57.53;;
17858;SDS011;35426;30.698;104.050;2023-02-28T01:09:47;117.00;;;57.70;;
17858;SDS011;35426;30.698;104.050;2023-02-28T01:12:25;124.70;;;58.17;;
17858;SDS011;35426;30.698;104.050;2023-02-28T01:15:05;121.43;;;59.27;;
17858;SDS011;35426;30.698;104.050;2023-02-28T01:17:45;124.43;;;58.77;;
17858;SDS011;35426;30.698;104.050;2023-02-28T01:20:26;120.67;;;60.07;;
17858;SDS011;35426;30.698;104.050;2023-02-28T01:23:02;142.03;;;61.93;;
17858;SDS011;35426;30.698;104.050;2023-02-28T01:25:38;127.50;;;61.10;;
17858;SDS011;35426;30.698;104.050;2023-02-28T01:28:15;122.70;;;60.03;;
17858;SDS011;35426;30.698;104.050;2023-02-28T01:31:01;136.33;;;61.20;;
17858;SDS011;35426;30.698;104.050;2023-02-28T01:33:39;122.67;;;59.33;;
17858;SDS011;35426;30.698;104.050;2023-02-28T01:36:17;115.77;;;58.80;;
17858;SDS011;35426;30.698;104.050;2023-02-28T01:38:57;118.07;;;58.77;;
17858;SDS011;35426;30.698;104.050;2023-02-28T01:41:34;120.47;;;59.03;;
17858;SDS011;35426;30.698;104.050;2023-02-28T01:47:19;134.63;;;62.83;;
17858;SDS011;35426;30.698;104.050;2023-02-28T01:49:58;124.10;;;61.33;;
17858;SDS011;35426;30.698;104.050;2023-02-28T01:52:36;127.03;;;62.27;;
17858;SDS011;35426;30.698;104.050;2023-02-28T01:55:13;148.77;;;64.27;;
17858;SDS011;35426;30.698;104.050;2023-02-28T01:57:53;134.13;;;61.17;;
17858;SDS011;35426;30.698;104.050;2023-02-28T02:00:32;128.67;;;61.83;;
17858;SDS011;35426;30.698;104.050;2023-02-28T02:03:15;130.23;;;60.60;;
17858;SDS011;35426;30.698;104.050;2023-02-28T02:05:53;135.53;;;62.07;;
17858;SDS011;35426;30.698;104.050;2023-02-28T02:08:29;129.80;;;62.53;;
17858;SDS011;35426;30.698;104.050;2023-02-28T02:11:16;132.40;;;62.33;;
17858;SDS011;35426;30.698;104.050;2023-02-28T02:14:03;143.70;;;62.70;;
17858;SDS011;35426;30.698;104.050;2023-02-28T02:17:07;128.27;;;60.97;;
17858;SDS011;35426;30.698;104.050;2023-02-28T02:23:18;139.87;;;62.93;;
17858;SDS011;35426;30.698;104.050;2023-02-28T02:26:28;127.60;;;62.87;;
17858;SDS011;35426;30.698;104.050;2023-02-28T02:29:36;130.63;;;65.13;;
17858;SDS011;35426;30.698;104.050;2023-02-28T02:35:56;137.27;;;64.80;;
17858;SDS011;35426;30.698;104.050;2023-02-28T02:38:41;136.93;;;64.87;;
17858;SDS011;35426;30.698;104.050;2023-02-28T02:41:26;127.07;;;63.07;;
17858;SDS011;35426;30.698;104.050;2023-02-28T02:44:10;137.13;;;64.70;;
17858;SDS011;35426;30.698;104.050;2023-02-28T02:46:53;126.67;;;64.27;;
17858;SDS011;35426;30.698;104.050;2023-02-28T02:49:36;137.87;;;65.97;;
17858;SDS011;35426;30.698;104.050;2023-02-28T02:52:17;143.23;;;67.00;;
17858;SDS011;35426;30.698;104.050;2023-02-28T02:54:57;137.40;;;66.27;;
17858;SDS011;35426;30.698;104.050;2023-02-28T02:57:38;134.13;;;66.63;;
17858;SDS011;35426;30.698;104.050;2023-02-28T03:00:20;139.23;;;66.00;;
17858;SDS011;35426;30.698;104.050;2023-02-28T03:03:11;155.20;;;68.77;;
17858;SDS011;35426;30.698;104.050;2023-02-28T03:05:59;138.47;;;67.17;;
17858;SDS011;35426;30.698;104.050;2023-02-28T03:08:45;140.47;;;66.63;;
17858;SDS011;35426;30.698;104.050;2023-02-28T03:11:24;137.37;;;66.60;;
17858;SDS011;35426;30.698;104.050;2023-02-28T03:14:07;136.07;;;67.50;;
17858;SDS011;35426;30.698;104.050;2023-02-28T03:17:01;136.97;;;68.53;;
17858;SDS011;35426;30.698;104.050;2023-02-28T03:20:05;149.27;;;68.60;;
17858;SDS011;35426;30.698;104.050;2023-02-28T03:22:57;141.73;;;70.07;;
17858;SDS011;35426;30.698;104.050;2023-02-28T03:25:51;144.50;;;71.07;;
17858;SDS011;35426;30.698;104.050;2023-02-28T03:28:31;139.40;;;70.50;;
17858;SDS011;35426;30.698;104.050;2023-02-28T03:31:16;146.37;;;71.10;;
17858;SDS011;35426;30.698;104.050;2023-02-28T03:34:04;151.73;;;70.47;;
17858;SDS011;35426;30.698;104.050;2023-02-28T03:36:46;135.90;;;68.73;;
17858;SDS011;35426;30.698;104.050;2023-02-28T03:39:30;139.77;;;69.67;;
17858;SDS011;35426;30.698;104.050;2023-02-28T03:42:14;140.83;;;69.57;;
17858;SDS011;35426;30.698;104.050;2023-02-28T03:44:53;142.30;;;70.30;;
17858;SDS011;35426;30.698;104.050;2023-02-28T03:47:35;144.37;;;70.53;;
17858;SDS011;35426;30.698;104.050;2023-02-28T03:50:15;150.30;;;72.67;;
17858;SDS011;35426;30.698;104.050;2023-02-28T03:52:57;148.13;;;70.50;;
17858;SDS011;35426;30.698;104.050;2023-02-28T03:55:39;144.87;;;72.40;;
17858;SDS011;35426;30.698;104.050;2023-02-28T03:58:32;154.70;;;74.43;;
17858;SDS011;35426;30.698;104.050;2023-02-28T04:01:20;151.53;;;73.13;;
17858;SDS011;35426;30.698;104.050;2023-02-28T04:04:01;152.97;;;72.17;;
17858;SDS011;35426;30.698;104.050;2023-02-28T04:06:41;159.83;;;71.87;;
17858;SDS011;35426;30.698;104.050;2023-02-28T04:09:34;146.07;;;72.43;;
17858;SDS011;35426;30.698;104.050;2023-02-28T04:12:14;149.17;;;72.87;;
17858;SDS011;35426;30.698;104.050;2023-02-28T04:14:56;158.30;;;75.90;;
17858;SDS011;35426;30.698;104.050;2023-02-28T04:17:33;143.13;;;70.47;;
17858;SDS011;35426;30.698;104.050;2023-02-28T04:20:10;131.57;;;61.83;;
17858;SDS011;35426;30.698;104.050;2023-02-28T04:22:49;125.23;;;63.03;;
17858;SDS011;35426;30.698;104.050;2023-02-28T04:25:32;123.07;;;57.90;;
17858;SDS011;35426;30.698;104.050;2023-02-28T04:28:10;114.00;;;57.67;;
17858;SDS011;35426;30.698;104.050;2023-02-28T04:30:53;122.30;;;59.93;;
17858;SDS011;35426;30.698;104.050;2023-02-28T04:33:36;131.70;;;61.90;;
17858;SDS011;35426;30.698;104.050;2023-02-28T04:36:13;123.87;;;58.33;;
17858;SDS011;35426;30.698;104.050;2023-02-28T04:38:52;114.13;;;57.10;;
17858;SDS011;35426;30.698;104.050;2023-02-28T04:41:29;117.80;;;55.30;;
17858;SDS011;35426;30.698;104.050;2023-02-28T04:44:09;121.40;;;58.23;;
17858;SDS011;35426;30.698;104.050;2023-02-28T04:46:52;123.13;;;58.23;;
17858;SDS011;35426;30.698;104.050;2023-02-28T04:49:34;120.53;;;57.40;;
17858;SDS011;35426;30.698;104.050;2023-02-28T04:52:12;130.87;;;57.47;;
17858;SDS011;35426;30.698;104.050;2023-02-28T04:54:48;120.57;;;56.10;;
17858;SDS011;35426;30.698;104.050;2023-02-28T04:57:31;121.47;;;56.40;;
17858;SDS011;35426;30.698;104.050;2023-02-28T05:00:10;108.97;;;52.50;;
17858;SDS011;35426;30.698;104.050;2023-02-28T05:02:50;132.60;;;55.10;;
17858;SDS011;35426;30.698;104.050;2023-02-28T05:05:32;119.57;;;54.97;;
17858;SDS011;35426;30.698;104.050;2023-02-28T05:08:10;125.67;;;55.27;;
17858;SDS011;35426;30.698;104.050;2023-02-28T05:10:55;107.70;;;47.77;;
17858;SDS011;35426;30.698;104.050;2023-02-28T05:13:33;117.83;;;51.07;;
17858;SDS011;35426;30.698;104.050;2023-02-28T05:16:17;112.40;;;50.47;;
17858;SDS011;35426;30.698;104.050;2023-02-28T05:18:57;108.90;;;50.40;;
17858;SDS011;35426;30.698;104.050;2023-02-28T05:21:34;107.30;;;52.00;;
17858;SDS011;35426;30.698;104.050;2023-02-28T05:24:12;115.97;;;49.27;;
17858;SDS011;35426;30.698;104.050;2023-02-28T05:26:53;102.53;;;48.33;;
17858;SDS011;35426;30.698;104.050;2023-02-28T05:29:31;108.00;;;49.77;;
17858;SDS011;35426;30.698;104.050;2023-02-28T05:32:13;116.80;;;50.30;;
17858;SDS011;35426;30.698;104.050;2023-02-28T05:34:55;110.73;;;50.10;;
17858;SDS011;35426;30.698;104.050;2023-02-28T05:37:34;117.50;;;51.70;;
17858;SDS011;35426;30.698;104.050;2023-02-28T05:40:11;120.40;;;51.43;;
17858;SDS011;35426;30.698;104.050;2023-02-28T05:42:47;98.43;;;46.90;;
17858;SDS011;35426;30.698;104.050;2023-02-28T05:45:25;108.87;;;48.40;;
17858;SDS011;35426;30.698;104.050;2023-02-28T05:48:02;109.33;;;46.03;;
17858;SDS011;35426;30.698;104.050;2023-02-28T05:50:47;102.63;;;47.97;;
17858;SDS011;35426;30.698;104.050;2023-02-28T05:53:32;106.80;;;49.03;;
17858;SDS011;35426;30.698;104.050;2023-02-28T05:56:11;107.77;;;48.27;;
17858;SDS011;35426;30.698;104.050;2023-02-28T05:58:47;109.53;;;49.00;;
17858;SDS011;35426;30.698;104.050;2023-02-28T06:01:34;105.77;;;46.53;;
17858;SDS011;35426;30.698;104.050;2023-02-28T06:04:19;111.47;;;49.40;;
17858;SDS011;35426;30.698;104.050;2023-02-28T06:07:12;112.00;;;49.30;;
17858;SDS011;35426;30.698;104.050;2023-02-28T06:09:52;109.13;;;45.77;;
17858;SDS011;35426;30.698;104.050;2023-02-28T06:12:30;99.73;;;45.77;;
17858;SDS011;35426;30.698;104.050;2023-02-28T06:15:07;101.23;;;44.37;;
17858;SDS011;35426;30.698;104.050;2023-02-28T06:17:50;110.23;;;48.13;;
17858;SDS011;35426;30.698;104.050;2023-02-28T06:20:27;102.83;;;48.93;;
17858;SDS011;35426;30.698;104.050;2023-02-28T06:23:08;113.13;;;50.27;;
17858;SDS011;35426;30.698;104.050;2023-02-28T06:25:46;95.73;;;45.77;;
17858;SDS011;35426;30.698;104.050;2023-02-28T06:28:23;100.50;;;45.90;;
17858;SDS011;35426;30.698;104.050;2023-02-28T06:31:11;105.83;;;49.63;;
17858;SDS011;35426;30.698;104.050;2023-02-28T06:33:52;106.20;;;49.03;;
17858;SDS011;35426;30.698;104.050;2023-02-28T06:36:34;104.73;;;49.43;;
17858;SDS011;35426;30.698;104.050;2023-02-28T06:39:16;103.50;;;47.60;;
17858;SDS011;35426;30.698;104.050;2023-02-28T06:41:56;104.33;;;47.60;;
17858;SDS011;35426;30.698;104.050;2023-02-28T06:44:32;101.10;;;46.87;;
17858;SDS011;35426;30.698;104.050;2023-02-28T06:47:09;98.57;;;47.90;;
17858;SDS011;35426;30.698;104.050;2023-02-28T06:49:46;106.67;;;47.93;;
17858;SDS011;35426;30.698;104.050;2023-02-28T06:52:23;113.43;;;48.70;;
17858;SDS011;35426;30.698;104.050;2023-02-28T06:55:05;102.97;;;48.30;;
17858;SDS011;35426;30.698;104.050;2023-02-28T06:57:42;102.00;;;47.37;;
17858;SDS011;35426;30.698;104.050;2023-02-28T07:00:22;104.53;;;47.57;;
17858;SDS011;35426;30.698;104.050;2023-02-28T07:02:59;101.60;;;46.60;;
17858;SDS011;35426;30.698;104.050;2023-02-28T07:05:35;91.80;;;46.37;;
17858;SDS011;35426;30.698;104.050;2023-02-28T07:08:13;90.50;;;42.00;;
17858;SDS011;35426;30.698;104.050;2023-02-28T07:10:56;97.03;;;42.70;;
17858;SDS011;35426;30.698;104.050;2023-02-28T07:13:35;95.10;;;44.10;;
17858;SDS011;35426;30.698;104.050;2023-02-28T07:16:17;101.43;;;46.03;;
17858;SDS011;35426;30.698;104.050;2023-02-28T07:18:59;102.63;;;44.10;;
17858;SDS011;35426;30.698;104.050;2023-02-28T07:21:38;99.10;;;43.60;;
17858;SDS011;35426;30.698;104.050;2023-02-28T07:24:20;96.77;;;43.50;;
17858;SDS011;35426;30.698;104.050;2023-02-28T07:27:04;94.90;;;41.03;;
17858;SDS011;35426;30.698;104.050;2023-02-28T07:29:44;99.00;;;42.13;;
17858;SDS011;35426;30.698;104.050;2023-02-28T07:32:27;102.10;;;44.70;;
17858;SDS011;35426;30.698;104.050;2023-02-28T07:35:08;98.07;;;41.60;;
17858;SDS011;35426;30.698;104.050;2023-02-28T07:37:45;104.10;;;44.50;;
17858;SDS011;35426;30.698;104.050;2023-02-28T07:40:22;98.33;;;44.73;;
17858;SDS011;35426;30.698;104.050;2023-02-28T07:43:02;102.40;;;44.63;;
17858;SDS011;35426;30.698;104.050;2023-02-28T07:45:46;103.13;;;44.50;;
17858;SDS011;35426;30.698;104.050;2023-02-28T07:48:28;103.10;;;44.60;;
17858;SDS011;35426;30.698;104.050;2023-02-28T07:51:06;98.17;;;43.93;;
17858;SDS011;35426;30.698;104.050;2023-02-28T07:53:48;91.23;;;45.47;;
17858;SDS011;35426;30.698;104.050;2023-02-28T07:56:25;100.67;;;47.20;;
17858;SDS011;35426;30.698;104.050;2023-02-28T07:59:05;95.03;;;45.40;;
17858;SDS011;35426;30.698;104.050;2023-02-28T08:01:42;87.23;;;44.90;;
17858;SDS011;35426;30.698;104.050;2023-02-28T08:04:20;105.13;;;45.93;;
17858;SDS011;35426;30.698;104.050;2023-02-28T08:07:03;107.63;;;46.37;;
17858;SDS011;35426;30.698;104.050;2023-02-28T08:09:44;108.77;;;47.77;;
17858;SDS011;35426;30.698;104.050;2023-02-28T08:12:24;111.13;;;47.63;;
17858;SDS011;35426;30.698;104.050;2023-02-28T08:15:08;99.80;;;45.10;;
17858;SDS011;35426;30.698;104.050;2023-02-28T08:17:47;100.63;;;45.10;;
17858;SDS011;35426;30.698;104.050;2023-02-28T08:20:24;105.80;;;44.50;;
17858;SDS011;35426;30.698;104.050;2023-02-28T08:23:07;108.53;;;46.40;;
17858;SDS011;35426;30.698;104.050;2023-02-28T08:25:52;105.53;;;44.57;;
17858;SDS011;35426;30.698;104.050;2023-02-28T08:28:32;96.50;;;43.73;;
17858;SDS011;35426;30.698;104.050;2023-02-28T08:31:13;92.63;;;41.93;;
17858;SDS011;35426;30.698;104.050;2023-02-28T08:33:51;100.33;;;42.37;;
17858;SDS011;35426;30.698;104.050;2023-02-28T08:36:31;91.80;;;44.67;;
17858;SDS011;35426;30.698;104.050;2023-02-28T08:39:08;96.93;;;43.30;;
17858;SDS011;35426;30.698;104.050;2023-02-28T08:41:45;86.53;;;42.33;;
17858;SDS011;35426;30.698;104.050;2023-02-28T08:44:35;93.13;;;43.20;;
17858;SDS011;35426;30.698;104.050;2023-02-28T08:47:14;95.73;;;41.83;;
17858;SDS011;35426;30.698;104.050;2023-02-28T08:49:51;96.67;;;41.27;;
17858;SDS011;35426;30.698;104.050;2023-02-28T08:52:27;93.80;;;42.13;;
17858;SDS011;35426;30.698;104.050;2023-02-28T08:55:04;92.50;;;42.37;;
17858;SDS011;35426;30.698;104.050;2023-02-28T08:57:43;95.20;;;42.83;;
17858;SDS011;35426;30.698;104.050;2023-02-28T09:00:23;89.20;;;41.83;;
17858;SDS011;35426;30.698;104.050;2023-02-28T09:03:10;96.77;;;41.90;;
17858;SDS011;35426;30.698;104.050;2023-02-28T09:05:54;103.57;;;43.07;;
17858;SDS011;35426;30.698;104.050;2023-02-28T09:08:33;88.77;;;41.63;;
17858;SDS011;35426;30.698;104.050;2023-02-28T09:11:12;87.23;;;41.40;;
17858;SDS011;35426;30.698;104.050;2023-02-28T09:13:53;94.83;;;42.63;;
17858;SDS011;35426;30.698;104.050;2023-02-28T09:16:34;88.33;;;41.20;;
17858;SDS011;35426;30.698;104.050;2023-02-28T09:19:16;102.13;;;42.13;;
17858;SDS011;35426;30.698;104.050;2023-02-28T09:22:06;82.50;;;40.47;;
17858;SDS011;35426;30.698;104.050;2023-02-28T09:24:43;87.83;;;42.33;;
17858;SDS011;35426;30.698;104.050;2023-02-28T09:27:21;104.57;;;40.67;;
17858;SDS011;35426;30.698;104.050;2023-02-28T09:29:57;96.53;;;42.87;;
17858;SDS011;35426;30.698;104.050;2023-02-28T09:32:36;106.80;;;41.87;;
17858;SDS011;35426;30.698;104.050;2023-02-28T09:35:30;89.20;;;40.17;;
17858;SDS011;35426;30.698;104.050;2023-02-28T09:38:11;88.70;;;39.93;;
17858;SDS011;35426;30.698;104.050;2023-02-28T09:40:50;93.20;;;41.33;;
17858;SDS011;35426;30.698;104.050;2023-02-28T09:43:34;93.73;;;41.77;;
17858;SDS011;35426;30.698;104.050;2023-02-28T09:46:20;96.87;;;41.33;;
17858;SDS011;35426;30.698;104.050;2023-02-28T09:49:06;94.17;;;42.57;;
17858;SDS011;35426;30.698;104.050;2023-02-28T09:51:50;102.63;;;41.93;;
17858;SDS011;35426;30.698;104.050;2023-02-28T09:54:30;101.20;;;44.50;;
17858;SDS011;35426;30.698;104.050;2023-02-28T09:57:10;98.73;;;42.43;;
17858;SDS011;35426;30.698;104.050;2023-02-28T09:59:58;93.70;;;42.20;;
17858;SDS011;35426;30.698;104.050;2023-02-28T10:03:04;95.00;;;43.20;;
17858;SDS011;35426;30.698;104.050;2023-02-28T10:06:02;111.67;;;43.33;;
17858;SDS011;35426;30.698;104.050;2023-02-28T10:08:50;97.90;;;42.90;;
17858;SDS011;35426;30.698;104.050;2023-02-28T10:11:32;109.80;;;44.47;;
17858;SDS011;35426;30.698;104.050;2023-02-28T10:14:17;96.20;;;44.33;;
17858;SDS011;35426;30.698;104.050;2023-02-28T10:16:57;93.87;;;44.90;;
17858;SDS011;35426;30.698;104.050;2023-02-28T10:19:38;102.53;;;45.07;;
17858;SDS011;35426;30.698;104.050;2023-02-28T10:22:23;101.37;;;46.60;;
17858;SDS011;35426;30.698;104.050;2023-02-28T10:25:11;106.07;;;45.17;;
17858;SDS011;35426;30.698;104.050;2023-02-28T10:27:53;103.37;;;45.07;;
17858;SDS011;35426;30.698;104.050;2023-02-28T10:30:45;103.63;;;45.63;;
17858;SDS011;35426;30.698;104.050;2023-02-28T10:33:24;116.77;;;46.67;;
17858;SDS011;35426;30.698;104.050;2023-02-28T10:36:13;111.07;;;45.97;;
17858;SDS011;35426;30.698;104.050;2023-02-28T10:38:52;101.23;;;43.40;;
17858;SDS011;35426;30.698;104.050;2023-02-28T10:41:32;106.93;;;45.60;;
17858;SDS011;35426;30.698;104.050;2023-02-28T10:44:19;106.03;;;45.73;;
17858;SDS011;35426;30.698;104.050;2023-02-28T10:46:58;98.20;;;45.30;;
17858;SDS011;35426;30.698;104.050;2023-02-28T10:49:36;110.17;;;44.70;;
17858;SDS011;35426;30.698;104.050;2023-02-28T10:52:33;107.53;;;44.83;;
17858;SDS011;35426;30.698;104.050;2023-02-28T10:55:18;121.50;;;45.33;;
17858;SDS011;35426;30.698;104.050;2023-02-28T10:58:08;105.17;;;45.60;;
17858;SDS011;35426;30.698;104.050;2023-02-28T11:01:01;111.03;;;45.83;;
17858;SDS011;35426;30.698;104.050;2023-02-28T11:03:45;105.57;;;44.63;;
17858;SDS011;35426;30.698;104.050;2023-02-28T11:06:23;108.37;;;46.77;;
17858;SDS011;35426;30.698;104.050;2023-02-28T11:09:03;110.40;;;45.47;;
17858;SDS011;35426;30.698;104.050;2023-02-28T11:11:53;108.30;;;44.77;;
17858;SDS011;35426;30.698;104.050;2023-02-28T11:14:34;111.10;;;45.53;;
17858;SDS011;35426;30.698;104.050;2023-02-28T11:17:25;108.40;;;46.83;;
17858;SDS011;35426;30.698;104.050;2023-02-28T11:20:18;112.10;;;45.90;;
17858;SDS011;35426;30.698;104.050;2023-02-28T11:23:01;111.97;;;46.30;;
17858;SDS011;35426;30.698;104.050;2023-02-28T11:25:58;117.20;;;46.00;;
17858;SDS011;35426;30.698;104.050;2023-02-28T11:28:40;106.80;;;46.67;;
17858;SDS011;35426;30.698;104.050;2023-02-28T11:31:21;113.23;;;48.97;;
17858;SDS011;35426;30.698;104.050;2023-02-28T11:37:05;118.97;;;48.73;;
17858;SDS011;35426;30.698;104.050;2023-02-28T11:39:47;106.87;;;46.97;;
17858;SDS011;35426;30.698;104.050;2023-02-28T11:42:31;130.03;;;48.63;;
17858;SDS011;35426;30.698;104.050;2023-02-28T11:45:24;122.63;;;48.57;;
17858;SDS011;35426;30.698;104.050;2023-02-28T11:48:21;114.27;;;48.37;;
17858;SDS011;35426;30.698;104.050;2023-02-28T11:51:15;110.10;;;46.77;;
17858;SDS011;35426;30.698;104.050;2023-02-28T11:54:21;112.00;;;48.43;;
17858;SDS011;35426;30.698;104.050;2023-02-28T11:57:16;112.10;;;47.70;;
17858;SDS011;35426;30.698;104.050;2023-02-28T12:00:05;119.97;;;47.80;;
17858;SDS011;35426;30.698;104.050;2023-02-28T12:02:59;107.00;;;45.40;;
17858;SDS011;35426;30.698;104.050;2023-02-28T12:05:50;108.27;;;48.47;;
17858;SDS011;35426;30.698;104.050;2023-02-28T12:08:56;113.87;;;46.93;;
17858;SDS011;35426;30.698;104.050;2023-02-28T12:11:57;116.43;;;47.50;;
17858;SDS011;35426;30.698;104.050;2023-02-28T12:14:56;106.70;;;46.87;;
17858;SDS011;35426;30.698;104.050;2023-02-28T12:18:04;113.57;;;48.67;;
17858;SDS011;35426;30.698;104.050;2023-02-28T12:21:04;117.10;;;47.43;;
17858;SDS011;35426;30.698;104.050;2023-02-28T12:24:00;131.13;;;49.13;;
17858;SDS011;35426;30.698;104.050;2023-02-28T12:26:59;119.37;;;49.73;;
17858;SDS011;35426;30.698;104.050;2023-02-28T12:29:47;112.57;;;49.00;;
17858;SDS011;35426;30.698;104.050;2023-02-28T12:32:32;108.00;;;48.27;;
17858;SDS011;35426;30.698;104.050;2023-02-28T12:35:14;120.23;;;49.27;;
17858;SDS011;35426;30.698;104.050;2023-02-28T12:38:01;119.47;;;50.03;;
17858;SDS011;35426;30.698;104.050;2023-02-28T12:40:43;122.13;;;50.80;;
17858;SDS011;35426;30.698;104.050;2023-02-28T12:43:25;110.03;;;49.40;;
17858;SDS011;35426;30.698;104.050;2023-02-28T12:46:09;113.67;;;48.90;;
17858;SDS011;35426;30.698;104.050;2023-02-28T12:48:53;112.57;;;48.43;;
17858;SDS011;35426;30.698;104.050;2023-02-28T12:51:40;109.47;;;49.47;;
17858;SDS011;35426;30.698;104.050;2023-02-28T12:54:26;111.80;;;48.70;;
17858;SDS011;35426;30.698;104.050;2023-02-28T12:57:11;126.10;;;51.87;;
17858;SDS011;35426;30.698;104.050;2023-02-28T12:59:58;126.20;;;50.80;;
17858;SDS011;35426;30.698;104.050;2023-02-28T13:02:47;118.10;;;50.27;;
17858;SDS011;35426;30.698;104.050;2023-02-28T13:09:12;132.77;;;51.37;;
17858;SDS011;35426;30.698;104.050;2023-02-28T13:11:58;115.43;;;49.87;;
17858;SDS011;35426;30.698;104.050;2023-02-28T13:14:49;119.43;;;50.13;;
17858;SDS011;35426;30.698;104.050;2023-02-28T13:17:36;124.50;;;52.83;;
17858;SDS011;35426;30.698;104.050;2023-02-28T13:20:20;121.67;;;52.47;;
17858;SDS011;35426;30.698;104.050;2023-02-28T13:23:16;124.23;;;51.97;;
17858;SDS011;35426;30.698;104.050;2023-02-28T13:26:17;132.33;;;52.60;;
17858;SDS011;35426;30.698;104.050;2023-02-28T13:29:01;123.60;;;50.77;;
17858;SDS011;35426;30.698;104.050;2023-02-28T13:38:43;128.30;;;52.43;;
17858;SDS011;35426;30.698;104.050;2023-02-28T13:41:44;123.77;;;53.67;;
17858;SDS011;35426;30.698;104.050;2023-02-28T13:44:31;119.53;;;52.10;;
17858;SDS011;35426;30.698;104.050;2023-02-28T13:47:57;132.53;;;53.37;;
17858;SDS011;35426;30.698;104.050;2023-02-28T13:50:38;129.90;;;54.83;;
17858;SDS011;35426;30.698;104.050;2023-02-28T13:56:26;132.33;;;52.40;;
17858;SDS011;35426;30.698;104.050;2023-02-28T13:59:18;129.80;;;52.97;;
17858;SDS011;35426;30.698;104.050;2023-02-28T14:02:17;136.13;;;54.47;;
17858;SDS011;35426;30.698;104.050;2023-02-28T14:05:13;132.73;;;54.27;;
17858;SDS011;35426;30.698;104.050;2023-02-28T14:07:48;138.43;;;55.27;;
17858;SDS011;35426;30.698;104.050;2023-02-28T14:10:26;137.60;;;55.73;;
17858;SDS011;35426;30.698;104.050;2023-02-28T14:13:03;148.17;;;55.87;;
17858;SDS011;35426;30.698;104.050;2023-02-28T14:15:46;136.20;;;56.93;;
17858;SDS011;35426;30.698;104.050;2023-02-28T14:18:35;151.03;;;57.63;;
17858;SDS011;35426;30.698;104.050;2023-02-28T14:21:21;141.57;;;59.67;;
17858;SDS011;35426;30.698;104.050;2023-02-28T14:24:13;139.60;;;57.13;;
17858;SDS011;35426;30.698;104.050;2023-02-28T14:27:32;147.87;;;58.67;;
17858;SDS011;35426;30.698;104.050;2023-02-28T14:33:45;163.00;;;60.40;;
17858;SDS011;35426;30.698;104.050;2023-02-28T14:36:40;142.57;;;61.27;;
17858;SDS011;35426;30.698;104.050;2023-02-28T14:39:24;148.23;;;58.43;;
17858;SDS011;35426;30.698;104.050;2023-02-28T14:42:24;157.53;;;60.70;;
17858;SDS011;35426;30.698;104.050;2023-02-28T14:45:23;144.73;;;58.73;;
17858;SDS011;35426;30.698;104.050;2023-02-28T14:48:02;146.50;;;60.03;;
17858;SDS011;35426;30.698;104.050;2023-02-28T14:50:55;142.07;;;61.27;;
17858;SDS011;35426;30.698;104.050;2023-02-28T14:53:36;134.27;;;59.17;;
17858;SDS011;35426;30.698;104.050;2023-02-28T14:56:18;138.17;;;59.57;;
17858;SDS011;35426;30.698;104.050;2023-02-28T14:59:05;137.03;;;59.93;;
17858;SDS011;35426;30.698;104.050;2023-02-28T15:02:29;150.87;;;61.60;;
17858;SDS011;35426;30.698;104.050;2023-02-28T15:05:18;162.87;;;64.50;;
17858;SDS011;35426;30.698;104.050;2023-02-28T15:08:14;151.33;;;61.10;;
17858;SDS011;35426;30.698;104.050;2023-02-28T15:10:55;142.73;;;62.30;;
17858;SDS011;35426;30.698;104.050;2023-02-28T15:13:41;145.07;;;62.60;;
17858;SDS011;35426;30.698;104.050;2023-02-28T15:16:24;153.57;;;65.17;;
17858;SDS011;35426;30.698;104.050;2023-02-28T15:19:11;144.33;;;63.87;;
17858;SDS011;35426;30.698;104.050;2023-02-28T15:22:01;151.13;;;64.30;;
17858;SDS011;35426;30.698;104.050;2023-02-28T15:24:53;152.47;;;65.97;;
17858;SDS011;35426;30.698;104.050;2023-02-28T15:27:37;151.57;;;67.57;;
17858;SDS011;35426;30.698;104.050;2023-02-28T15:30:19;158.30;;;69.80;;
17858;SDS011;35426;30.698;104.050;2023-02-28T15:33:05;155.90;;;68.83;;
17858;SDS011;35426;30.698;104.050;2023-02-28T15:36:09;160.63;;;69.33;;
17858;SDS011;35426;30.698;104.050;2023-02-28T15:38:51;164.03;;;72.80;;
17858;SDS011;35426;30.698;104.050;2023-02-28T15:41:46;168.93;;;72.50;;
17858;SDS011;35426;30.698;104.050;2023-02-28T15:44:26;168.80;;;71.93;;
17858;SDS011;35426;30.698;104.050;2023-02-28T15:47:17;162.50;;;74.27;;
17858;SDS011;35426;30.698;104.050;2023-02-28T15:50:14;162.47;;;72.37;;